Time;durP1;ratioP1;P1;durP2;ratioP2;P2;SDS_P1;SDS_P2;PMS_P1;PMS_P2;Temp;Humidity;BMP_temperature;BMP_pressure;BME280_temperature;BME280_humidity;BME280_pressure;Samples;Min_cycle;Max_cycle;Signal;HPM_P1;HPM_P2
2024/01/17 00:00:08;;;;;;;9.02;1.73;;;;;;;;;;5081166;28;20522;-77
2024/01/17 00:02:34;;;;;;;4.28;2.60;;;;;;;;;;5082356;28;20028;-76
2024/01/17 00:05:00;;;;;;;3.70;3.22;;;;;;;;;;5082716;28;20028;-76
2024/01/17 00:07:27;;;;;;;7.13;2.63;;;;;;;;;;5080820;28;20024;-77
2024/01/17 00:09:53;;;;;;;6.93;3.88;;;;;;;;;;5082054;28;20016;-75
2024/01/17 00:12:19;;;;;;;4.00;2.55;;;;;;;;;;5078413;28;20884;-77
2024/01/17 00:14:44;;;;;;;2.63;1.77;;;;;;;;;;5070620;28;20501;-77
2024/01/17 00:17:12;;;;;;;8.63;3.38;;;;;;;;;;5071844;28;20126;-77
2024/01/17 00:19:37;;;;;;;3.97;3.35;;;;;;;;;;5081607;28;20500;-78
2024/01/17 00:22:04;;;;;;;2.25;1.85;;;;;;;;;;5078743;28;20042;-77
2024/01/17 00:24:30;;;;;;;4.35;3.85;;;;;;;;;;5083474;28;20028;-78
2024/01/17 00:26:57;;;;;;;9.38;3.22;;;;;;;;;;5086365;28;20032;-77
2024/01/17 00:29:22;;;;;;;3.25;2.95;;;;;;;;;;5085169;28;20587;-77
2024/01/17 00:31:48;;;;;;;4.00;2.63;;;;;;;;;;5084085;28;20115;-75
2024/01/17 00:34:15;;;;;;;7.93;2.65;;;;;;;;;;5074147;28;20607;-77
2024/01/17 00:36:41;;;;;;;2.65;2.42;;;;;;;;;;5077546;28;20020;-75
2024/01/17 00:39:06;;;;;;;2.70;2.50;;;;;;;;;;5074419;28;20024;-76
2024/01/17 00:41:33;;;;;;;1.38;1.27;;;;;;;;;;5085519;28;20028;-77
2024/01/17 00:43:59;;;;;;;3.03;2.22;;;;;;;;;;5075311;28;20395;-76
2024/01/17 00:46:25;;;;;;;3.47;2.33;;;;;;;;;;5074003;28;20100;-76
2024/01/17 00:48:51;;;;;;;9.60;3.75;;;;;;;;;;5084463;28;20028;-75
2024/01/17 00:51:26;;;;;;;5.50;2.72;;;;;;;;;;5083810;28;20531;-77
2024/01/17 00:53:53;;;;;;;2.45;2.25;;;;;;;;;;5074628;28;20169;-77
2024/01/17 00:56:19;;;;;;;6.00;2.33;;;;;;;;;;5081252;28;20028;-76
2024/01/17 00:58:45;;;;;;;4.50;3.20;;;;;;;;;;5077371;28;20043;-77
2024/01/17 01:01:11;;;;;;;13.48;5.75;;;;;;;;;;5083395;28;20031;-77
2024/01/17 01:03:37;;;;;;;5.07;2.55;;;;;;;;;;5082527;28;21427;-76
2024/01/17 01:06:05;;;;;;;9.68;3.13;;;;;;;;;;5081461;28;20033;-77
2024/01/17 01:08:30;;;;;;;2.55;2.35;;;;;;;;;;5075711;28;20061;-76
2024/01/17 01:10:56;;;;;;;3.17;2.88;;;;;;;;;;5080345;28;20479;-78
2024/01/17 01:13:23;;;;;;;2.88;2.63;;;;;;;;;;5108306;28;20016;-76
2024/01/17 01:15:49;;;;;;;7.55;3.25;;;;;;;;;;5101960;28;20042;-77
2024/01/17 01:18:15;;;;;;;6.05;2.40;;;;;;;;;;5078796;28;20036;-76
2024/01/17 01:20:41;;;;;;;3.83;2.20;;;;;;;;;;5080549;28;20034;-77
2024/01/17 01:23:07;;;;;;;6.85;2.13;;;;;;;;;;5080653;28;20034;-76
2024/01/17 01:25:33;;;;;;;2.55;2.35;;;;;;;;;;5085281;28;20387;-77
2024/01/17 01:27:59;;;;;;;4.72;3.35;;;;;;;;;;5080237;28;20212;-77
2024/01/17 01:30:25;;;;;;;5.55;2.22;;;;;;;;;;5078173;28;20035;-78
2024/01/17 01:32:51;;;;;;;7.50;3.03;;;;;;;;;;5084732;28;20028;-77
2024/01/17 01:35:17;;;;;;;4.82;3.50;;;;;;;;;;5082547;28;20036;-77
2024/01/17 01:37:43;;;;;;;12.15;2.15;;;;;;;;;;5080443;28;20441;-77
2024/01/17 01:40:09;;;;;;;2.88;2.05;;;;;;;;;;5085451;28;20560;-78
2024/01/17 01:42:35;;;;;;;4.05;3.13;;;;;;;;;;5085257;28;20032;-76
2024/01/17 01:45:01;;;;;;;3.42;2.25;;;;;;;;;;5079216;28;20449;-78
2024/01/17 01:47:28;;;;;;;2.45;2.05;;;;;;;;;;5080232;28;20020;-77
2024/01/17 01:49:55;;;;;;;5.10;1.60;;;;;;;;;;5084176;28;20110;-77
2024/01/17 01:52:21;;;;;;;3.75;2.75;;;;;;;;;;5085100;28;20035;-77
2024/01/17 01:54:48;;;;;;;5.97;3.85;;;;;;;;;;5082628;28;20495;-77
2024/01/17 01:57:14;;;;;;;3.08;2.88;;;;;;;;;;5085547;28;20166;-77
2024/01/17 01:59:40;;;;;;;2.50;1.95;;;;;;;;;;5075883;28;20024;-78
2024/01/17 02:02:06;;;;;;;5.38;3.80;;;;;;;;;;5080454;28;20028;-79
2024/01/17 02:04:34;;;;;;;2.55;1.63;;;;;;;;;;5076394;28;20033;-77
2024/01/17 02:07:01;;;;;;;4.28;2.95;;;;;;;;;;5079183;28;20536;-76
2024/01/17 02:09:27;;;;;;;4.93;3.97;;;;;;;;;;5078769;28;20425;-77
2024/01/17 02:11:54;;;;;;;11.05;3.55;;;;;;;;;;5079709;28;20039;-78
2024/01/17 02:14:20;;;;;;;7.82;2.60;;;;;;;;;;5072690;28;20393;-76
2024/01/17 02:16:46;;;;;;;6.60;4.30;;;;;;;;;;5071301;28;20392;-77
2024/01/17 02:19:16;;;;;;;3.60;3.25;;;-7.30;99.90;;;;;;5074703;28;20020;-77
2024/01/17 02:21:42;;;;;;;2.78;2.58;;;;;;;;;;5082298;28;20032;-78
2024/01/17 02:24:14;;;;;;;3.28;2.95;;;;;;;;;;5082913;28;20032;-78
2024/01/17 02:26:40;;;;;;;4.22;3.03;;;;;;;;;;5069132;28;20024;-77
2024/01/17 02:29:06;;;;;;;4.38;2.53;;;;;;;;;;5078764;28;20560;-76
2024/01/17 02:31:32;;;;;;;3.78;2.97;;;;;;;;;;5084380;28;20016;-77
2024/01/17 02:33:58;;;;;;;3.95;3.20;;;;;;;;;;5079813;28;20493;-77
2024/01/17 02:36:24;;;;;;;5.45;3.17;;;;;;;;;;5087148;28;20122;-77
2024/01/17 02:38:50;;;;;;;3.90;2.13;;;;;;;;;;5080883;28;20377;-77
2024/01/17 02:41:16;;;;;;;2.97;2.47;;;;;;;;;;5088500;28;20038;-78
2024/01/17 02:43:42;;;;;;;4.57;2.58;;;;;;;;;;5080603;28;20039;-76
2024/01/17 02:46:08;;;;;;;2.90;2.65;;;;;;;;;;5077729;28;20070;-76
2024/01/17 02:48:34;;;;;;;4.30;3.88;;;;;;;;;;5078778;28;20040;-77
2024/01/17 02:51:00;;;;;;;5.13;1.85;;;;;;;;;;5080224;28;20028;-77
2024/01/17 02:53:26;;;;;;;3.35;3.05;;;;;;;;;;5073623;28;20125;-77
2024/01/17 02:55:51;;;;;;;7.47;4.10;;;-6.50;99.90;;;;;;5083582;28;20512;-78
2024/01/17 02:58:18;;;;;;;7.72;4.40;;;;;;;;;;5088593;28;20035;-77
2024/01/17 03:00:44;;;;;;;8.80;4.15;;;;;;;;;;5085944;28;20379;-77
2024/01/17 03:03:10;;;;;;;7.15;3.35;;;;;;;;;;5079283;28;20028;-77
2024/01/17 03:05:37;;;;;;;5.75;3.53;;;;;;;;;;5084636;28;20076;-77
2024/01/17 03:08:04;;;;;;;2.63;2.45;;;;;;;;;;5063950;28;20116;-76
2024/01/17 03:10:30;;;;;;;4.38;3.35;;;;;;;;;;5084840;28;20024;-77
2024/01/17 03:12:56;;;;;;;4.78;2.70;;;;;;;;;;5086848;28;20032;-77
2024/01/17 03:15:23;;;;;;;5.20;2.58;;;;;;;;;;5083628;28;20477;-76
2024/01/17 03:17:49;;;;;;;3.45;2.15;;;;;;;;;;5084160;28;20504;-77
2024/01/17 03:20:15;;;;;;;10.02;4.60;;;;;;;;;;5088179;28;20096;-76
2024/01/17 03:22:41;;;;;;;9.73;4.38;;;;;;;;;;5082488;28;20028;-77
2024/01/17 03:25:08;;;;;;;6.82;2.47;;;;;;;;;;5080594;28;20039;-77
2024/01/17 03:27:34;;;;;;;5.63;3.10;;;;;;;;;;5082784;28;20163;-77
2024/01/17 03:30:00;;;;;;;4.63;3.92;;;;;;;;;;5080882;28;20059;-77
2024/01/17 03:32:26;;;;;;;8.05;3.95;;;;;;;;;;5085099;28;20492;-78
2024/01/17 03:34:55;;;;;;;4.45;2.60;;;;;;;;;;5082608;28;20538;-77
2024/01/17 03:37:21;;;;;;;10.63;5.15;;;;;;;;;;5087134;28;20039;-77
2024/01/17 03:39:47;;;;;;;5.45;3.10;;;;;;;;;;5083222;28;20511;-76
2024/01/17 03:42:15;;;;;;;2.35;2.15;;;;;;;;;;5073962;28;20025;-77
2024/01/17 03:44:43;;;;;;;5.93;3.78;;;;;;;;;;5085077;28;20487;-76
2024/01/17 03:47:09;;;;;;;5.60;3.53;;;;;;;;;;5076860;28;20637;-76
2024/01/17 03:49:35;;;;;;;6.78;3.00;;;;;;;;;;5080203;28;20071;-78
2024/01/17 03:52:01;;;;;;;4.47;3.63;;;;;;;;;;5083678;28;20020;-77
2024/01/17 03:54:26;;;;;;;8.27;4.47;;;;;;;;;;5078421;28;20100;-78
2024/01/17 03:56:52;;;;;;;4.00;2.75;;;;;;;;;;5078453;28;20047;-76
2024/01/17 03:59:18;;;;;;;2.95;2.58;;;;;;;;;;5086876;28;20127;-77
2024/01/17 04:01:45;;;;;;;4.93;3.55;;;;;;;;;;5085721;28;20077;-76
2024/01/17 04:04:11;;;;;;;15.45;4.18;;;;;;;;;;5070367;28;20052;-77
2024/01/17 04:06:37;;;;;;;8.02;2.67;;;;;;;;;;5085430;28;20028;-76
2024/01/17 04:09:03;;;;;;;9.18;3.47;;;;;;;;;;5080851;28;20097;-77
2024/01/17 04:11:29;;;;;;;3.72;2.95;;;;;;;;;;5085914;28;20035;-76
2024/01/17 04:13:55;;;;;;;7.43;4.30;;;;;;;;;;5080328;28;20030;-76
2024/01/17 04:16:21;;;;;;;5.20;3.35;;;;;;;;;;5092439;28;20020;-78
2024/01/17 04:18:47;;;;;;;4.13;2.13;;;;;;;;;;5096065;28;20032;-76
2024/01/17 04:21:20;;;;;;;5.00;3.55;;;;;;;;;;5097753;28;20024;-78
2024/01/17 04:23:49;;;;;;;4.22;3.08;;;;;;;;;;5083496;28;20040;-77
2024/01/17 04:26:23;;;;;;;4.00;3.55;;;;;;;;;;5072047;28;20035;-77
2024/01/17 04:28:50;;;;;;;7.20;4.78;;;;;;;;;;5077185;28;20020;-77
2024/01/17 04:31:42;;;;;;;12.75;3.03;;;;;;;;;;5090008;28;20024;-78
2024/01/17 04:34:08;;;;;;;9.75;3.03;;;;;;;;;;5077208;28;20044;-78
2024/01/17 04:36:34;;;;;;;10.85;3.78;;;;;;;;;;5090197;28;20035;-77
2024/01/17 04:39:00;;;;;;;6.75;4.43;;;;;;;;;;5077886;28;20070;-76
2024/01/17 04:41:26;;;;;;;6.53;3.22;;;;;;;;;;5089550;28;20036;-77
2024/01/17 04:43:52;;;;;;;6.72;5.25;;;;;;;;;;5086543;28;20020;-76
2024/01/17 04:46:18;;;;;;;8.32;4.30;;;;;;;;;;5080979;28;20107;-77
2024/01/17 04:48:45;;;;;;;8.50;3.30;;;;;;;;;;5080795;28;20032;-78
2024/01/17 04:51:11;;;;;;;4.47;3.63;;;;;;;;;;5086998;28;20032;-77
2024/01/17 04:53:37;;;;;;;4.10;3.55;;;;;;;;;;5089494;28;20020;-76
2024/01/17 04:56:06;;;;;;;4.43;4.03;;;-6.90;99.90;;;;;;5086382;28;20070;-76
2024/01/17 04:58:33;;;;;;;20.02;3.20;;;;;;;;;;5075917;28;20031;-75
2024/01/17 05:00:59;;;;;;;4.50;3.25;;;;;;;;;;5076807;28;20050;-76
2024/01/17 05:03:25;;;;;;;3.97;3.65;;;;;;;;;;5081223;28;20399;-77
2024/01/17 05:05:51;;;;;;;7.03;2.88;;;;;;;;;;5076628;28;20503;-77
2024/01/17 05:08:17;;;;;;;8.38;4.10;;;;;;;;;;5085325;28;20036;-76
2024/01/17 05:10:44;;;;;;;13.43;4.25;;;;;;;;;;5084480;28;20162;-76
2024/01/17 05:13:10;;;;;;;7.72;3.47;;;;;;;;;;5082248;28;20532;-77
2024/01/17 05:15:37;;;;;;;10.18;5.25;;;;;;;;;;5082844;28;20035;-75
2024/01/17 05:18:04;;;;;;;6.43;3.67;;;;;;;;;;5078620;28;20123;-76
2024/01/17 05:20:30;;;;;;;7.25;4.20;;;;;;;;;;5085727;28;20020;-76
2024/01/17 05:22:56;;;;;;;6.35;4.32;;;;;;;;;;5075939;28;20401;-76
2024/01/17 05:25:22;;;;;;;6.93;3.72;;;;;;;;;;5076816;28;20030;-76
2024/01/17 05:27:51;;;;;;;4.32;2.95;;;;;;;;;;5077143;28;20028;-75
2024/01/17 05:30:18;;;;;;;8.45;4.35;;;;;;;;;;5083435;28;20559;-76
2024/01/17 05:32:44;;;;;;;7.28;4.60;;;;;;;;;;5079003;28;20080;-76
2024/01/17 05:35:10;;;;;;;7.47;5.20;;;;;;;;;;5080021;28;20032;-75
2024/01/17 05:37:40;;;;;;;5.90;4.45;;;;;;;;;;5073508;28;20956;-77
2024/01/17 05:40:08;;;;;;;11.90;4.60;;;;;;;;;;5080741;28;20020;-76
2024/01/17 05:42:34;;;;;;;5.57;5.07;;;;;;;;;;5080082;28;20032;-76
2024/01/17 05:45:00;;;;;;;8.00;3.60;;;;;;;;;;5085030;28;20511;-75
2024/01/17 05:47:26;;;;;;;6.15;4.70;;;;;;;;;;5082642;28;20507;-76
2024/01/17 05:49:52;;;;;;;11.13;6.57;;;;;;;;;;5079453;28;20020;-77
2024/01/17 05:52:17;;;;;;;5.10;3.92;;;;;;;;;;5077125;28;20036;-77
2024/01/17 05:54:43;;;;;;;7.03;5.38;;;;;;;;;;5075732;28;20016;-76
2024/01/17 05:57:09;;;;;;;12.73;7.45;;;;;;;;;;5065575;28;20051;-76
2024/01/17 05:59:35;;;;;;;10.18;5.97;;;;;;;;;;5067241;28;20112;-76
2024/01/17 06:02:01;;;;;;;9.20;4.43;;;;;;;;;;5082900;28;20044;-76
2024/01/17 06:04:27;;;;;;;14.48;5.43;;;;;;;;;;5091214;28;20036;-76
2024/01/17 06:06:53;;;;;;;6.43;3.42;;;;;;;;;;5082972;28;20047;-76
2024/01/17 06:09:19;;;;;;;7.70;3.97;;;;;;;;;;5057745;28;20625;-78
2024/01/17 06:11:45;;;;;;;6.55;3.88;;;;;;;;;;5080991;28;20716;-77
2024/01/17 06:14:11;;;;;;;9.65;5.25;;;;;;;;;;5077918;28;20098;-78
2024/01/17 06:16:37;;;;;;;7.50;4.15;;;;;;;;;;5078871;28;20027;-77
2024/01/17 06:19:03;;;;;;;14.55;7.78;;;;;;;;;;5074753;28;20127;-77
2024/01/17 06:21:29;;;;;;;13.90;8.05;;;;;;;;;;5074637;28;20028;-77
2024/01/17 06:23:55;;;;;;;12.20;5.50;;;;;;;;;;5082779;28;20039;-77
2024/01/17 06:26:22;;;;;;;8.68;5.43;;;;;;;;;;5085387;28;20024;-76
2024/01/17 06:28:48;;;;;;;8.98;4.88;;;;;;;;;;5085126;28;20028;-76
2024/01/17 06:31:24;;;;;;;9.18;6.10;;;;;;;;;;5088887;28;20097;-77
2024/01/17 06:33:50;;;;;;;11.10;6.47;;;;;;;;;;5080302;28;20036;-78
2024/01/17 06:36:17;;;;;;;13.68;7.18;;;;;;;;;;5090599;28;20067;-77
2024/01/17 06:38:43;;;;;;;9.23;6.65;;;;;;;;;;5070960;28;20040;-77
2024/01/17 06:41:09;;;;;;;9.50;5.30;;;;;;;;;;5072415;28;20030;-77
2024/01/17 06:43:35;;;;;;;11.60;7.00;;;;;;;;;;5081847;28;20056;-76
2024/01/17 06:46:01;;;;;;;7.25;5.03;;;;;;;;;;5077451;28;20063;-77
2024/01/17 06:48:26;;;;;;;10.25;6.00;;;;;;;;;;5075377;28;20110;-77
2024/01/17 06:50:52;;;;;;;14.57;6.90;;;;;;;;;;5078970;28;20054;-78
2024/01/17 06:53:21;;;;;;;14.25;7.03;;;;;;;;;;5089935;28;20098;-75
2024/01/17 06:55:47;;;;;;;9.57;6.00;;;;;;;;;;5084153;28;20114;-78
2024/01/17 06:58:13;;;;;;;9.90;5.97;;;;;;;;;;5086915;28;20040;-78
2024/01/17 07:00:39;;;;;;;8.30;5.85;;;;;;;;;;5078269;28;20035;-77
2024/01/17 07:03:05;;;;;;;9.52;6.05;;;;;;;;;;5086068;28;20027;-77
2024/01/17 07:05:30;;;;;;;7.97;5.35;;;;;;;;;;5083444;28;20028;-78
2024/01/17 07:07:56;;;;;;;10.02;5.03;;;;;;;;;;5086006;28;20672;-78
2024/01/17 07:10:23;;;;;;;12.85;4.93;;;;;;;;;;5092969;28;20488;-77
2024/01/17 07:12:50;;;;;;;8.77;5.90;;;;;;;;;;5089045;28;20508;-78
2024/01/17 07:15:16;;;;;;;12.55;6.45;;;;;;;;;;5084090;28;20028;-78
2024/01/17 07:17:42;;;;;;;13.98;6.85;;;;;;;;;;5080693;28;20075;-77
2024/01/17 07:20:10;;;;;;;12.43;5.47;;;;;;;;;;5093849;28;20046;-76
2024/01/17 07:22:41;;;;;;;12.98;7.03;;;;;;;;;;5100089;28;20028;-77
2024/01/17 07:25:08;;;;;;;8.63;5.05;;;;;;;;;;5096653;28;20035;-78
2024/01/17 07:27:34;;;;;;;13.85;7.18;;;;;;;;;;5087470;28;20035;-78
2024/01/17 07:29:59;;;;;;;16.77;7.80;;;;;;;;;;5081541;28;20450;-79
2024/01/17 07:32:25;;;;;;;23.63;7.18;;;;;;;;;;5082094;28;20139;-79
2024/01/17 07:34:52;;;;;;;13.13;6.85;;;;;;;;;;5083690;28;20028;-77
2024/01/17 07:37:18;;;;;;;14.02;7.35;;;;;;;;;;5088902;28;20040;-77
2024/01/17 07:39:44;;;;;;;11.20;6.30;;;;;;;;;;5084852;28;20032;-79
2024/01/17 07:42:10;;;;;;;19.48;10.60;;;;;;;;;;5088704;28;21464;-79
2024/01/17 07:44:36;;;;;;;12.85;7.63;;;;;;;;;;5093340;28;20043;-79
2024/01/17 07:47:02;;;;;;;15.57;9.07;;;;;;;;;;5083253;28;24223;-78
2024/01/17 07:49:28;;;;;;;17.55;8.30;;;;;;;;;;5080881;28;20120;-77
2024/01/17 07:51:55;;;;;;;11.63;6.15;;;;;;;;;;5085580;28;20047;-78
2024/01/17 07:54:23;;;;;;;12.30;7.53;;;;;;;;;;5092159;28;20384;-77
2024/01/17 07:56:49;;;;;;;16.15;8.38;;;;;;;;;;5092012;28;20082;-78
2024/01/17 07:59:16;;;;;;;15.20;8.77;;;;;;;;;;5083793;28;20016;-76
2024/01/17 08:01:42;;;;;;;15.25;9.45;;;;;;;;;;5084286;28;20028;-78
2024/01/17 08:04:08;;;;;;;22.40;9.18;;;;;;;;;;5086701;28;20030;-78
2024/01/17 08:06:34;;;;;;;15.82;8.68;;;;;;;;;;5096055;28;20012;-77
2024/01/17 08:09:01;;;;;;;15.25;8.25;;;;;;;;;;5099807;28;20040;-78
2024/01/17 08:11:28;;;;;;;18.85;8.45;;;;;;;;;;5102381;28;20039;-78
2024/01/17 08:13:54;;;;;;;22.08;10.05;;;;;;;;;;5093844;28;20542;-77
2024/01/17 08:16:21;;;;;;;17.02;9.23;;;;;;;;;;5096254;28;20036;-79
2024/01/17 08:18:48;;;;;;;13.95;8.02;;;;;;;;;;5074895;28;20690;-77
2024/01/17 08:21:14;;;;;;;17.70;9.35;;;;;;;;;;5082701;28;20035;-78
2024/01/17 08:23:40;;;;;;;21.80;10.60;;;;;;;;;;5089011;28;20088;-78
2024/01/17 08:26:07;;;;;;;15.15;7.88;;;;;;;;;;5093772;28;20048;-78
2024/01/17 08:28:33;;;;;;;21.70;9.70;;;;;;;;;;5073387;28;20032;-78
2024/01/17 08:30:59;;;;;;;23.15;9.55;;;;;;;;;;5087903;28;20032;-78
2024/01/17 08:33:25;;;;;;;18.42;7.97;;;;;;;;;;5080356;28;20044;-80
2024/01/17 08:35:51;;;;;;;16.92;9.50;;;;;;;;;;5093574;28;20273;-79
2024/01/17 08:38:17;;;;;;;21.63;8.85;;;;;;;;;;5084703;28;20491;-79
2024/01/17 08:40:43;;;;;;;17.90;8.45;;;;;;;;;;5093304;28;20039;-79
2024/01/17 08:43:09;;;;;;;20.25;11.32;;;;;;;;;;5071664;28;20028;-78
2024/01/17 08:45:35;;;;;;;20.10;10.50;;;;;;;;;;5084188;28;20042;-79
2024/01/17 08:48:01;;;;;;;18.55;9.65;;;;;;;;;;5085891;28;20388;-79
2024/01/17 08:50:28;;;;;;;17.30;10.30;;;;;;;;;;5094334;28;20028;-79
2024/01/17 08:52:54;;;;;;;33.33;11.45;;;;;;;;;;5085536;28;20037;-79
2024/01/17 08:55:20;;;;;;;19.40;8.65;;;;;;;;;;5088114;28;20047;-80
2024/01/17 08:57:46;;;;;;;17.60;9.55;;;;;;;;;;5086479;28;20122;-78
2024/01/17 09:00:14;;;;;;;24.60;10.82;;;;;;;;;;5073883;28;20127;-83
2024/01/17 09:02:40;;;;;;;30.65;8.57;;;;;;;;;;5084457;28;20027;-78
2024/01/17 09:05:06;;;;;;;20.08;10.02;;;;;;;;;;5090481;28;20035;-80
2024/01/17 09:07:32;;;;;;;22.35;11.98;;;;;;;;;;5085652;28;20035;-78
2024/01/17 09:09:58;;;;;;;21.70;10.82;;;;;;;;;;5074068;28;20032;-79
2024/01/17 09:12:24;;;;;;;15.35;8.75;;;;;;;;;;5091949;28;20126;-81
2024/01/17 09:14:50;;;;;;;22.10;9.90;;;;;;;;;;5083205;28;20040;-79
2024/01/17 09:17:16;;;;;;;21.95;8.95;;;;;;;;;;5086858;28;20039;-80
2024/01/17 09:19:43;;;;;;;17.50;9.68;;;;;;;;;;5088759;28;20103;-81
2024/01/17 09:22:09;;;;;;;22.10;10.75;;;;;;;;;;5088872;28;20046;-82
2024/01/17 09:24:36;;;;;;;16.48;10.10;;;;;;;;;;5076981;28;20024;-81
2024/01/17 09:27:02;;;;;;;22.15;11.52;;;;;;;;;;5085639;28;20380;-82
2024/01/17 09:29:33;;;;;;;18.88;9.63;;;;;;;;;;5064818;28;20028;-82
2024/01/17 09:31:59;;;;;;;21.38;8.68;;;;;;;;;;5078005;28;20057;-82
2024/01/17 09:34:25;;;;;;;21.00;8.15;;;;;;;;;;5087475;28;20028;-82
2024/01/17 09:36:52;;;;;;;14.07;7.72;;;;;;;;;;5087270;28;20039;-83
2024/01/17 09:39:18;;;;;;;23.02;10.23;;;;;;;;;;5086490;28;20028;-81
2024/01/17 09:41:44;;;;;;;16.52;9.45;;;;;;;;;;5089468;28;20024;-81
2024/01/17 09:44:11;;;;;;;19.20;8.77;;;;;;;;;;5084475;28;20035;-81
2024/01/17 09:46:40;;;;;;;17.02;9.27;;;;;;;;;;5087923;28;20404;-81
2024/01/17 09:49:06;;;;;;;17.48;8.77;;;;;;;;;;5075199;28;20020;-81
2024/01/17 09:51:32;;;;;;;19.08;8.63;;;;;;;;;;5061171;28;20086;-80
2024/01/17 09:54:00;;;;;;;15.93;7.50;;;;;;;;;;5064583;28;20028;-80
2024/01/17 09:56:30;;;;;;;14.55;7.88;;;2.70;99.90;;;;;;5077754;28;20031;-78
2024/01/17 09:58:57;;;;;;;20.02;10.10;;;;;;;;;;5078537;28;20577;-78
2024/01/17 10:01:24;;;;;;;14.30;8.27;;;;;;;;;;5062702;28;20028;-79
2024/01/17 10:03:51;;;;;;;16.20;7.47;;;;;;;;;;5073720;28;20066;-79
2024/01/17 10:06:17;;;;;;;22.85;10.57;;;;;;;;;;5085588;28;20031;-79
2024/01/17 10:08:46;;;;;;;17.35;8.82;;;;;;;;;;5071323;28;20079;-80
2024/01/17 10:11:13;;;;;;;16.48;8.15;;;;;;;;;;5070941;28;20536;-78
2024/01/17 10:13:39;;;;;;;18.83;9.73;;;;;;;;;;5083139;28;20357;-79
2024/01/17 10:16:06;;;;;;;24.73;11.10;;;;;;;;;;5065395;28;20074;-78
2024/01/17 10:18:32;;;;;;;24.67;10.38;;;;;;;;;;5080693;28;20486;-78
2024/01/17 10:20:59;;;;;;;18.13;8.63;;;;;;;;;;5084167;28;20024;-79
2024/01/17 10:23:26;;;;;;;15.70;7.72;;;;;;;;;;5077188;28;20016;-78
2024/01/17 10:25:53;;;;;;;16.67;8.27;;;;;;;;;;5082138;28;20479;-78
2024/01/17 10:28:19;;;;;;;16.90;8.57;;;;;;;;;;5078553;28;20016;-75
2024/01/17 10:30:45;;;;;;;17.23;7.57;;;;;;;;;;5083957;28;20038;-78
2024/01/17 10:33:11;;;;;;;17.85;9.00;;;;;;;;;;5073330;28;20032;-79
2024/01/17 10:35:37;;;;;;;18.10;7.07;;;;;;;;;;5072933;28;20035;-78
2024/01/17 10:38:04;;;;;;;6.93;4.55;;;;;;;;;;5080109;28;20033;-77
2024/01/17 10:40:30;;;;;;;14.70;7.00;;;;;;;;;;5100753;28;20028;-77
2024/01/17 10:43:04;;;;;;;8.23;4.45;;;;;;;;;;5090886;28;20594;-78
2024/01/17 10:45:34;;;;;;;8.00;4.00;;;;;;;;;;5083097;28;20040;-79
2024/01/17 10:48:00;;;;;;;12.80;3.83;;;;;;;;;;5080971;28;20028;-77
2024/01/17 10:50:25;;;;;;;8.88;4.18;;;;;;;;;;5086087;28;20044;-78
2024/01/17 10:53:03;;;;;;;6.45;3.17;;;4.00;99.90;;;;;;5080112;28;20139;-78
2024/01/17 10:55:30;;;;;;;9.48;3.95;;;;;;;;;;5080845;28;20031;-78
2024/01/17 10:58:01;;;;;;;11.48;4.22;;;;;;;;;;5087171;28;20047;-79
2024/01/17 11:00:31;;;;;;;6.45;3.40;;;;;;;;;;5088111;28;20039;-79
2024/01/17 11:02:58;;;;;;;4.47;2.83;;;;;;;;;;5088657;28;20028;-79
2024/01/17 11:05:26;;;;;;;5.20;2.28;;;;;;;;;;5093999;28;20024;-79
2024/01/17 11:07:53;;;;;;;5.57;2.60;;;5.10;99.90;;;;;;5085284;28;20035;-78
2024/01/17 11:10:20;;;;;;;5.97;2.05;;;;;;;;;;5091252;28;20030;-79
2024/01/17 11:12:46;;;;;;;4.20;1.98;;;;;;;;;;5082152;28;20024;-77
2024/01/17 11:15:12;;;;;;;3.40;2.03;;;;;;;;;;5085336;28;20029;-78
2024/01/17 11:17:39;;;;;;;4.32;2.20;;;;;;;;;;5078313;28;20059;-80
2024/01/17 11:20:10;;;;;;;3.50;2.03;;;;;;;;;;5089482;28;20453;-77
2024/01/17 11:22:36;;;;;;;3.75;1.85;;;;;;;;;;5091780;28;20039;-77
2024/01/17 11:25:10;;;;;;;3.75;2.15;;;;;;;;;;5089249;28;20031;-78
2024/01/17 11:27:43;;;;;;;6.65;2.47;;;;;;;;;;5085971;28;20056;-80
2024/01/17 11:30:09;;;;;;;5.28;2.28;;;;;;;;;;5086433;28;20150;-79
2024/01/17 11:32:47;;;;;;;5.55;1.70;;;;;;;;;;5090763;28;20035;-80
2024/01/17 11:35:31;;;;;;;2.80;1.85;;;;;;;;;;5088535;28;20054;-79
2024/01/17 11:37:58;;;;;;;3.28;2.03;;;;;;;;;;5088836;28;20143;-77
2024/01/17 11:40:24;;;;;;;3.92;1.90;;;;;;;;;;5091105;28;20024;-78
2024/01/17 11:42:50;;;;;;;2.03;1.65;;;;;;;;;;5077960;28;20042;-77
2024/01/17 11:45:16;;;;;;;3.53;2.10;;;;;;;;;;5091914;28;20083;-76
2024/01/17 11:47:52;;;;;;;4.43;1.48;;;;;;;;;;5080687;28;20521;-78
2024/01/17 11:50:20;;;;;;;4.95;2.08;;;;;;;;;;5089872;28;20508;-77
2024/01/17 11:52:46;;;;;;;3.97;1.50;;;;;;;;;;5085727;28;20032;-76
2024/01/17 11:55:12;;;;;;;5.38;2.22;;;;;;;;;;5079694;28;20024;-77
2024/01/17 11:57:38;;;;;;;4.22;1.80;;;;;;;;;;5083897;28;20032;-77
2024/01/17 12:00:11;;;;;;;2.78;1.45;;;;;;;;;;5084786;28;20021;-77
2024/01/17 12:02:38;;;;;;;2.47;1.30;;;;;;;;;;5079449;28;20024;-77
2024/01/17 12:05:05;;;;;;;4.10;2.15;;;;;;;;;;5083986;28;20115;-76
2024/01/17 12:07:31;;;;;;;4.10;1.48;;;;;;;;;;5084108;28;20035;-78
2024/01/17 12:09:57;;;;;;;3.67;1.65;;;;;;;;;;5080978;28;20040;-78
2024/01/17 12:12:23;;;;;;;3.05;1.85;;;;;;;;;;5080334;28;20040;-78
2024/01/17 12:14:49;;;;;;;1.58;1.48;;;;;;;;;;5083487;28;20035;-78
2024/01/17 12:17:15;;;;;;;3.05;1.30;;;;;;;;;;5080044;28;20154;-78
2024/01/17 12:19:43;;;;;;;6.70;1.77;;;;;;;;;;5085703;28;20053;-77
2024/01/17 12:22:09;;;;;;;4.28;2.17;;;;;;;;;;5084179;28;20047;-77
2024/01/17 12:24:37;;;;;;;4.20;1.40;;;;;;;;;;5077925;28;20036;-75
2024/01/17 12:27:05;;;;;;;4.90;1.75;;;;;;;;;;5075204;28;20476;-77
2024/01/17 12:29:32;;;;;;;3.53;2.00;;;;;;;;;;5083063;28;20898;-77
2024/01/17 12:31:58;;;;;;;2.58;1.67;;;;;;;;;;5077931;28;20036;-77
2024/01/17 12:34:24;;;;;;;1.75;1.00;;;;;;;;;;5084685;28;20028;-77
2024/01/17 12:36:50;;;;;;;3.22;1.73;;;;;;;;;;5073524;28;20044;-77
2024/01/17 12:39:17;;;;;;;3.63;1.52;;;;;;;;;;5084932;28;20488;-77
2024/01/17 12:41:43;;;;;;;4.15;1.60;;;;;;;;;;5087572;28;20036;-76
2024/01/17 12:44:08;;;;;;;2.13;1.38;;;;;;;;;;5081625;28;20032;-78
2024/01/17 12:46:35;;;;;;;2.53;1.60;;;;;;;;;;5085383;28;20107;-76
2024/01/17 12:49:01;;;;;;;3.67;1.50;;;;;;;;;;5098389;28;20642;-78
2024/01/17 12:51:29;;;;;;;3.17;1.83;;;;;;;;;;5095850;28;20510;-79
2024/01/17 12:53:56;;;;;;;5.15;1.55;;;;;;;;;;5082988;28;21258;-76
2024/01/17 12:56:22;;;;;;;3.38;1.60;;;;;;;;;;5092568;28;20063;-77
2024/01/17 12:58:48;;;;;;;3.42;1.42;;;;;;;;;;5079497;28;20039;-78
2024/01/17 13:01:16;;;;;;;2.63;1.42;;;;;;;;;;5068001;28;20028;-79
2024/01/17 13:03:44;;;;;;;4.25;1.67;;;;;;;;;;5081219;28;20461;-77
2024/01/17 13:06:12;;;;;;;2.30;1.23;;;;;;;;;;5090937;28;20515;-77
2024/01/17 13:08:38;;;;;;;1.55;0.85;;;;;;;;;;5076693;28;20388;-79
2024/01/17 13:11:14;;;;;;;2.58;1.20;;;;;;;;;;5085859;28;20118;-80
2024/01/17 13:13:40;;;;;;;3.60;1.30;;;;;;;;;;5082953;28;20361;-78
2024/01/17 13:16:06;;;;;;;2.53;0.93;;;;;;;;;;5088367;28;20043;-78
2024/01/17 13:18:33;;;;;;;5.90;1.50;;;;;;;;;;5084525;28;20044;-79
2024/01/17 13:21:09;;;;;;;3.85;1.33;;;;;;;;;;5087624;28;20119;-77
2024/01/17 13:23:35;;;;;;;1.75;0.93;;;;;;;;;;5086330;28;20035;-76
2024/01/17 13:26:01;;;;;;;2.08;1.60;;;;;;;;;;5086319;28;20031;-77
2024/01/17 13:28:27;;;;;;;2.58;1.33;;;;;;;;;;5087431;28;20032;-77
2024/01/17 13:30:53;;;;;;;3.65;1.38;;;;;;;;;;5082719;28;20027;-77
2024/01/17 13:33:19;;;;;;;3.30;1.73;;;;;;;;;;5081314;28;20640;-77
2024/01/17 13:35:48;;;;;;;5.72;1.55;;;;;;;;;;5087195;28;20036;-78
2024/01/17 13:38:14;;;;;;;3.05;1.20;;;;;;;;;;5072852;28;20090;-78
2024/01/17 13:40:40;;;;;;;1.48;0.90;;;;;;;;;;5078944;28;20527;-78
2024/01/17 13:43:06;;;;;;;1.00;0.57;;;;;;;;;;5075806;28;20032;-78
2024/01/17 13:45:32;;;;;;;2.92;0.95;;;;;;;;;;5075822;28;20021;-77
2024/01/17 13:47:58;;;;;;;1.50;0.75;;;;;;;;;;5081806;28;20032;-77
2024/01/17 13:50:27;;;;;;;1.25;1.00;;;;;;;;;;5084059;28;20392;-78
2024/01/17 13:52:56;;;;;;;3.35;1.02;;;;;;;;;;5075980;28;20033;-77
2024/01/17 13:55:22;;;;;;;2.30;1.00;;;3.40;99.90;;;;;;5078620;28;20047;-79
2024/01/17 13:57:48;;;;;;;1.88;0.88;;;;;;;;;;5079762;28;20109;-77
2024/01/17 14:00:15;;;;;;;4.22;2.20;;;;;;;;;;5085582;28;20027;-78
2024/01/17 14:02:44;;;;;;;4.85;2.10;;;;;;;;;;5083560;28;20032;-77
2024/01/17 14:05:10;;;;;;;5.50;2.45;;;;;;;;;;5095603;28;20032;-76
2024/01/17 14:07:37;;;;;;;4.57;2.30;;;;;;;;;;5089695;28;20080;-78
2024/01/17 14:10:04;;;;;;;3.30;2.03;;;;;;;;;;5083748;28;20036;-79
2024/01/17 14:12:31;;;;;;;6.45;2.83;;;;;;;;;;5084970;28;20028;-79
2024/01/17 14:14:57;;;;;;;4.07;2.38;;;;;;;;;;5092458;28;20100;-79
2024/01/17 14:17:23;;;;;;;3.90;2.05;;;;;;;;;;5086818;28;20121;-79
2024/01/17 14:19:50;;;;;;;6.35;2.70;;;;;;;;;;5092520;28;20468;-80
2024/01/17 14:22:18;;;;;;;4.72;2.42;;;;;;;;;;5077275;28;20036;-78
2024/01/17 14:24:44;;;;;;;3.97;2.08;;;;;;;;;;5085520;28;20047;-77
2024/01/17 14:27:10;;;;;;;6.03;2.53;;;;;;;;;;5085729;28;20032;-78
2024/01/17 14:29:35;;;;;;;4.28;1.80;;;;;;;;;;5083763;28;20046;-78
2024/01/17 14:32:02;;;;;;;2.67;1.48;;;;;;;;;;5083848;28;20031;-78